Time;durP1;ratioP1;P1;durP2;ratioP2;P2;SDS_P1;SDS_P2;PMS_P1;PMS_P2;Temp;Humidity;BMP_temperature;BMP_pressure;BME280_temperature;BME280_humidity;BME280_pressure;Samples;Min_cycle;Max_cycle;Signal;HPM_P1;HPM_P2
2022/02/19 00:01:30;;;;;;;97.90;57.33;;;128.70;2252.80;;;;;;5117144;27;20015;-82
2022/02/19 00:03:57;;;;;;;85.50;49.90;;;128.40;2252.80;;;;;;5116986;27;20489;-81
2022/02/19 00:06:23;;;;;;;83.80;46.33;;;128.40;2252.80;;;;;;5117273;27;20049;-80
2022/02/19 00:08:49;;;;;;;85.75;47.80;;;128.40;2252.80;;;;;;5117087;27;20020;-81
2022/02/19 00:11:15;;;;;;;110.28;61.47;;;128.50;2252.80;;;;;;5117289;27;20046;-82
2022/02/19 00:13:41;;;;;;;108.95;59.58;;;128.50;2252.80;;;;;;5117221;27;20442;-84
2022/02/19 00:16:07;;;;;;;109.85;61.15;;;128.40;2252.80;;;;;;5116736;27;20030;-85
2022/02/19 00:18:33;;;;;;;93.78;53.10;;;128.50;2252.80;;;;;;5117062;27;20110;-83
2022/02/19 00:20:59;;;;;;;100.25;56.33;;;128.20;2252.80;;;;;;5117076;27;20068;-82
2022/02/19 00:23:28;;;;;;;113.90;62.70;;;128.50;2252.80;;;;;;5116678;27;20027;-84
2022/02/19 00:25:54;;;;;;;102.57;56.60;;;128.20;2252.80;;;;;;5117061;27;20023;-83
2022/02/19 00:28:20;;;;;;;108.35;58.22;;;103.30;2227.20;;;;;;5117108;27;20019;-84
2022/02/19 00:30:46;;;;;;;97.57;52.83;;;128.30;2252.80;;;;;;5116754;27;20019;-83
2022/02/19 00:33:11;;;;;;;100.75;57.05;;;128.60;2252.80;;;;;;5116492;28;20567;-83
2022/02/19 00:35:37;;;;;;;60.03;36.38;;;128.40;2252.80;;;;;;5116748;27;20019;-82
2022/02/19 00:38:03;;;;;;;64.70;34.08;;;128.10;2252.80;;;;;;5116630;27;20019;-84
2022/02/19 00:40:29;;;;;;;90.43;48.08;;;103.30;2227.20;;;;;;5116457;27;20047;-82
2022/02/19 00:42:55;;;;;;;66.90;37.72;;;128.10;2252.80;;;;;;5116152;28;20133;-83
2022/02/19 00:45:22;;;;;;;58.70;32.58;;;128.30;2252.80;;;;;;5116524;28;20047;-82
2022/02/19 00:47:47;;;;;;;65.78;35.20;;;128.00;2252.80;;;;;;5116844;28;20408;-83
2022/02/19 00:50:13;;;;;;;59.53;34.30;;;103.10;2227.20;;;;;;5116744;28;20118;-81
2022/02/19 00:52:39;;;;;;;58.28;34.00;;;128.10;2252.80;;;;;;5134924;28;20019;-81
2022/02/19 00:55:06;;;;;;;64.95;37.33;;;128.10;2252.80;;;;;;5116688;28;20023;-79
2022/02/19 00:57:32;;;;;;;70.22;41.63;;;128.30;2252.80;;;;;;5116522;28;20054;-82
2022/02/19 00:59:58;;;;;;;71.85;40.67;;;103.20;2227.20;;;;;;5116677;28;20047;-82
2022/02/19 01:02:24;;;;;;;65.93;37.08;;;103.30;2227.20;;;;;;5134935;28;20438;-81
2022/02/19 01:04:50;;;;;;;69.65;36.83;;;103.20;2227.20;;;;;;5116481;28;20019;-83
2022/02/19 01:07:16;;;;;;;78.43;40.70;;;128.10;2252.80;;;;;;5116388;28;20075;-85
2022/02/19 01:09:41;;;;;;;62.30;33.63;;;128.20;2252.80;;;;;;5116562;28;20015;-81
2022/02/19 01:12:08;;;;;;;77.55;41.97;;;103.00;2227.20;;;;;;5116181;28;20030;-83
2022/02/19 01:14:33;;;;;;;70.82;38.25;;;103.20;2227.20;;;;;;5135181;28;20030;-84
2022/02/19 01:16:59;;;;;;;88.60;49.45;;;103.30;2227.20;;;;;;5116650;28;20019;-85
2022/02/19 01:19:25;;;;;;;80.32;39.70;;;103.20;2227.20;;;;;;5134541;28;20026;-82
2022/02/19 01:21:51;;;;;;;88.15;44.17;;;103.30;2227.20;;;;;;5116645;28;20019;-82
2022/02/19 01:24:20;;;;;;;104.70;49.63;;;103.10;2227.20;;;;;;5116362;28;20030;-83
2022/02/19 01:26:46;;;;;;;79.22;44.08;;;103.20;2227.20;;;;;;5116407;28;20386;-81
2022/02/19 01:29:11;;;;;;;92.45;49.63;;;103.10;2227.20;;;;;;5116312;28;20033;-82
2022/02/19 01:31:37;;;;;;;94.90;49.33;;;103.20;2227.20;;;;;;5116545;28;20043;-83
2022/02/19 01:34:03;;;;;;;80.78;44.15;;;103.10;2227.20;;;;;;5116175;28;20019;-84
2022/02/19 01:36:29;;;;;;;62.30;34.58;;;103.20;2227.20;;;;;;5116389;28;20024;-83
2022/02/19 01:38:55;;;;;;;53.97;28.73;;;103.10;2227.20;;;;;;5116435;28;20076;-83
2022/02/19 01:41:22;;;;;;;69.70;33.17;;;103.20;2227.20;;;;;;5116129;28;20363;-85
2022/02/19 01:43:48;;;;;;;68.05;35.10;;;103.20;2227.20;;;;;;5116301;28;20032;-85
2022/02/19 01:46:14;;;;;;;56.38;31.40;;;103.30;2227.20;;;;;;5118100;27;20031;-83
2022/02/19 01:48:40;;;;;;;71.72;37.90;;;128.10;2252.80;;;;;;5120126;27;20015;-85
2022/02/19 01:51:07;;;;;;;75.93;41.30;;;103.30;2227.20;;;;;;5119944;27;20389;-84
2022/02/19 01:53:33;;;;;;;54.95;32.22;;;103.30;2227.20;;;;;;5119843;27;20027;-83
2022/02/19 01:55:59;;;;;;;61.50;33.80;;;103.30;2227.20;;;;;;5119941;27;20122;-85
2022/02/19 01:58:26;;;;;;;60.80;28.25;;;103.10;2227.20;;;;;;5119964;27;20066;-84
2022/02/19 02:00:52;;;;;;;50.20;26.27;;;102.90;2227.20;;;;;;5119810;27;20343;-85
2022/02/19 02:03:17;;;;;;;49.30;28.67;;;102.60;2227.20;;;;;;5119808;27;20114;-85
2022/02/19 02:05:44;;;;;;;50.50;29.67;;;77.60;2227.20;;;;;;5119891;27;20027;-85
2022/02/19 02:08:10;;;;;;;53.75;30.65;;;102.60;2227.20;;;;;;5119521;27;20015;-83
2022/02/19 02:10:36;;;;;;;59.65;30.08;;;102.80;2227.20;;;;;;5119707;27;20370;-85
2022/02/19 02:13:04;;;;;;;68.72;37.35;;;102.40;2227.20;;;;;;5119973;27;20072;-83
2022/02/19 02:15:32;;;;;;;60.05;33.70;;;102.60;2227.20;;;;;;5119376;27;20022;-85
2022/02/19 02:17:58;;;;;;;55.83;28.05;;;102.60;2227.20;;;;;;5119623;27;20029;-84
2022/02/19 02:20:26;;;;;;;56.50;28.33;;;77.50;2227.20;;;;;;5119113;27;20050;-84
2022/02/19 02:22:51;;;;;;;59.92;31.67;;;102.50;2227.20;;;;;;5119223;27;20033;-85
2022/02/19 02:25:30;;;;;;;60.47;31.13;;;102.60;2227.20;;;;;;5119621;27;20110;-84
2022/02/19 02:27:57;;;;;;;49.40;27.75;;;102.70;2227.20;;;;;;5119379;27;20019;-84
2022/02/19 02:30:23;;;;;;;57.88;32.58;;;103.20;2227.20;;;;;;5118976;27;20023;-84
2022/02/19 02:32:50;;;;;;;54.83;32.67;;;103.30;2227.20;;;;;;5119434;27;20023;-83
2022/02/19 02:35:17;;;;;;;71.20;37.17;;;102.60;2227.20;;;;;;5119041;27;20026;-82
2022/02/19 02:37:43;;;;;;;53.38;32.15;;;102.80;2227.20;;;;;;5119281;27;20015;-84
2022/02/19 02:40:10;;;;;;;59.30;34.95;;;102.90;2227.20;;;;;;5119299;27;20390;-82
2022/02/19 02:42:36;;;;;;;49.72;25.13;;;102.90;2227.20;;;;;;5118299;27;20047;-85
2022/02/19 02:45:02;;;;;;;67.82;34.97;;;102.40;2227.20;;;;;;5119054;27;20389;-84
2022/02/19 02:47:28;;;;;;;66.10;34.92;;;102.50;2227.20;;;;;;5118973;27;20023;-85
2022/02/19 02:49:54;;;;;;;60.25;31.75;;;102.80;2227.20;;;;;;5118731;27;20020;-83
2022/02/19 02:52:19;;;;;;;50.88;26.50;;;102.70;2227.20;;;;;;5118899;27;20027;-85
2022/02/19 02:54:45;;;;;;;50.65;29.75;;;102.70;2227.20;;;;;;5119045;27;20055;-83
2022/02/19 02:57:11;;;;;;;50.67;27.73;;;102.50;2227.20;;;;;;5118352;27;20454;-83
2022/02/19 02:59:37;;;;;;;48.53;26.92;;;77.40;2227.20;;;;;;5118726;27;20067;-85
2022/02/19 03:02:03;;;;;;;73.05;35.78;;;102.40;2227.20;;;;;;5118676;27;20115;-84
2022/02/19 03:04:29;;;;;;;76.00;40.35;;;102.50;2227.20;;;;;;5118492;27;20051;-84
2022/02/19 03:06:55;;;;;;;61.80;35.85;;;77.60;2227.20;;;;;;5118643;27;20114;-82
2022/02/19 03:09:20;;;;;;;64.05;36.42;;;77.70;2227.20;;;;;;5118546;27;20077;-84
2022/02/19 03:11:46;;;;;;;59.90;32.08;;;77.70;2227.20;;;;;;5136617;27;20065;-83
2022/02/19 03:14:12;;;;;;;57.63;30.80;;;102.60;2227.20;;;;;;5118464;27;20059;-84
2022/02/19 03:16:38;;;;;;;54.60;30.77;;;77.70;2227.20;;;;;;5118434;27;20110;-83
2022/02/19 03:19:04;;;;;;;59.72;31.70;;;102.40;2227.20;;;;;;5125713;27;20070;-83
2022/02/19 03:21:30;;;;;;;60.50;30.75;;;102.40;2227.20;;;;;;5143636;27;20011;-85
2022/02/19 03:23:55;;;;;;;57.15;29.85;;;77.70;2227.20;;;;;;5121162;27;20075;-84
2022/02/19 03:26:21;;;;;;;54.53;28.90;;;102.40;2227.20;;;;;;5118728;27;20068;-85
2022/02/19 03:28:47;;;;;;;51.00;28.35;;;77.30;2227.20;;;;;;5136352;27;20365;-85
2022/02/19 03:31:13;;;;;;;53.20;30.83;;;77.40;2227.20;;;;;;5118223;27;20076;-86
2022/02/19 03:33:39;;;;;;;52.30;25.40;;;77.70;2227.20;;;;;;5117845;27;20027;-82
2022/02/19 03:36:05;;;;;;;43.45;23.52;;;77.50;2227.20;;;;;;5118149;27;20076;-84
2022/02/19 03:38:31;;;;;;;44.10;26.17;;;77.50;2227.20;;;;;;5117952;27;20023;-85
2022/02/19 03:40:57;;;;;;;44.70;25.25;;;102.40;2227.20;;;;;;5117899;27;20020;-85
2022/02/19 03:43:23;;;;;;;51.47;26.23;;;77.70;2227.20;;;;;;5117458;27;20039;-84
2022/02/19 03:45:48;;;;;;;48.22;28.15;;;102.50;2227.20;;;;;;5117491;27;20023;-84
2022/02/19 03:48:14;;;;;;;50.33;26.70;;;102.50;2227.20;;;;;;5117562;27;20023;-85
2022/02/19 03:50:40;;;;;;;46.72;26.50;;;77.70;2227.20;;;;;;5117777;27;20027;-85
2022/02/19 03:53:06;;;;;;;53.55;28.90;;;77.70;2227.20;;;;;;5136003;27;20110;-84
2022/02/19 03:55:31;;;;;;;49.45;28.13;;;77.40;2227.20;;;;;;5117804;27;20015;-83
2022/02/19 03:57:57;;;;;;;61.45;29.90;;;77.60;2227.20;;;;;;5117602;27;20104;-83
2022/02/19 04:00:23;;;;;;;57.42;33.17;;;77.40;2227.20;;;;;;5117114;27;20026;-85
2022/02/19 04:02:50;;;;;;;64.35;33.60;;;77.40;2227.20;;;;;;5117517;27;20054;-85
2022/02/19 04:05:16;;;;;;;57.97;34.58;;;77.40;2227.20;;;;;;5116962;27;20033;-84
2022/02/19 04:07:42;;;;;;;64.03;36.13;;;77.60;2227.20;;;;;;5116881;28;20026;-84
2022/02/19 04:10:09;;;;;;;57.25;33.20;;;77.30;2227.20;;;;;;5117206;27;20019;-85
2022/02/19 04:12:35;;;;;;;59.88;33.50;;;77.50;2227.20;;;;;;5117416;27;20045;-85
2022/02/19 04:15:02;;;;;;;58.60;30.33;;;77.10;2227.20;;;;;;5117147;27;20027;-83
2022/02/19 04:17:28;;;;;;;48.58;28.25;;;77.00;2227.20;;;;;;5117395;27;20110;-84
2022/02/19 04:19:53;;;;;;;46.90;26.27;;;77.00;2227.20;;;;;;5117408;27;20110;-86
2022/02/19 04:22:23;;;;;;;45.75;25.45;;;77.30;2227.20;;;;;;5116863;27;20027;-85
2022/02/19 04:24:50;;;;;;;44.60;24.15;;;77.30;2227.20;;;;;;5117279;27;20019;-84
2022/02/19 04:27:17;;;;;;;45.50;25.90;;;77.30;2227.20;;;;;;5117224;27;20023;-83
2022/02/19 04:29:43;;;;;;;48.50;26.35;;;77.40;2227.20;;;;;;5117100;27;20020;-84
2022/02/19 04:32:10;;;;;;;53.22;27.35;;;77.50;2227.20;;;;;;5135539;27;20019;-84
2022/02/19 04:34:36;;;;;;;51.40;28.83;;;77.60;2227.20;;;;;;5117051;27;20031;-82
2022/02/19 04:37:03;;;;;;;57.58;35.10;;;77.00;2227.20;;;;;;5117110;27;20019;-83
2022/02/19 04:39:28;;;;;;;45.65;30.10;;;52.00;2227.20;;;;;;5117267;28;20019;-84
2022/02/19 04:41:54;;;;;;;62.28;33.97;;;52.10;2227.20;;;;;;5116606;28;20422;-85
2022/02/19 04:44:20;;;;;;;61.88;32.00;;;76.90;2227.20;;;;;;5116763;28;20035;-84
2022/02/19 04:46:49;;;;;;;57.00;28.30;;;77.00;2227.20;;;;;;5116874;28;20023;-85
2022/02/19 04:49:15;;;;;;;54.90;30.80;;;76.80;2227.20;;;;;;5116679;28;20051;-85
2022/02/19 04:51:41;;;;;;;57.85;34.03;;;76.90;2227.20;;;;;;5116905;28;20052;-85
2022/02/19 04:54:07;;;;;;;63.55;33.90;;;77.00;2227.20;;;;;;5116874;28;20034;-82
2022/02/19 04:56:33;;;;;;;56.83;30.77;;;77.30;2227.20;;;;;;5116750;28;20493;-83
2022/02/19 04:58:59;;;;;;;72.82;37.97;;;77.60;2227.20;;;;;;5116801;28;20110;-84
2022/02/19 05:01:25;;;;;;;49.00;26.45;;;77.60;2227.20;;;;;;5116896;28;20027;-86
2022/02/19 05:03:54;;;;;;;44.28;25.23;;;77.30;2227.20;;;;;;5116590;28;20481;-84
2022/02/19 05:06:20;;;;;;;38.33;22.02;;;77.20;2227.20;;;;;;5116876;28;20047;-83
2022/02/19 05:08:46;;;;;;;35.05;20.50;;;77.00;2227.20;;;;;;5116655;28;20075;-82
2022/02/19 05:11:12;;;;;;;39.38;25.27;;;77.10;2227.20;;;;;;5116642;28;20019;-86
2022/02/19 05:13:37;;;;;;;56.40;31.42;;;77.10;2227.20;;;;;;5116581;28;20027;-85
2022/02/19 05:16:04;;;;;;;73.00;35.63;;;77.00;2227.20;;;;;;5116558;28;20057;-85
2022/02/19 05:18:30;;;;;;;75.68;35.72;;;77.10;2227.20;;;;;;5116473;28;20019;-86
2022/02/19 05:20:55;;;;;;;63.75;33.92;;;77.20;2227.20;;;;;;5120108;27;20072;-84
2022/02/19 05:23:22;;;;;;;60.78;35.25;;;77.00;2227.20;;;;;;5120130;27;20027;-84
2022/02/19 05:25:48;;;;;;;63.53;31.17;;;76.90;2227.20;;;;;;5120669;27;20015;-85
2022/02/19 05:28:14;;;;;;;56.67;30.85;;;77.00;2227.20;;;;;;5120475;27;20023;-83
2022/02/19 05:30:41;;;;;;;102.85;57.30;;;77.50;2227.20;;;;;;5120058;27;20458;-84
2022/02/19 05:33:07;;;;;;;91.72;52.10;;;77.30;2227.20;;;;;;5120515;27;20031;-82
2022/02/19 05:35:33;;;;;;;86.90;47.45;;;77.40;2227.20;;;;;;5120509;27;20015;-84
2022/02/19 05:37:58;;;;;;;92.95;46.70;;;77.40;2227.20;;;;;;5120239;27;20072;-86
2022/02/19 05:40:24;;;;;;;68.90;38.28;;;77.20;2227.20;;;;;;5138826;27;20027;-84
2022/02/19 05:42:50;;;;;;;66.53;39.00;;;77.20;2227.20;;;;;;5119956;27;20039;-83
2022/02/19 05:45:16;;;;;;;59.03;35.22;;;77.10;2227.20;;;;;;5138408;27;20102;-82
2022/02/19 05:47:42;;;;;;;57.65;29.88;;;76.90;2227.20;;;;;;5120005;27;20451;-85
2022/02/19 05:50:08;;;;;;;61.17;36.38;;;77.10;2227.20;;;;;;5120256;27;20053;-84
2022/02/19 05:52:34;;;;;;;60.80;33.80;;;77.20;2227.20;;;;;;5138912;27;20019;-87
2022/02/19 05:55:00;;;;;;;55.90;29.63;;;76.80;2227.20;;;;;;5120606;27;20083;-86
2022/02/19 05:57:26;;;;;;;48.97;26.98;;;52.00;2227.20;;;;;;5120145;27;20106;-86
2022/02/19 05:59:52;;;;;;;44.95;26.15;;;76.90;2227.20;;;;;;5138271;27;20426;-85
2022/02/19 06:02:18;;;;;;;131.90;76.45;;;52.10;2227.20;;;;;;5119934;27;20027;-84
2022/02/19 06:04:44;;;;;;;78.05;45.13;;;77.10;2227.20;;;;;;5119800;27;20019;-84
2022/02/19 06:07:10;;;;;;;46.90;23.58;;;77.00;2227.20;;;;;;5138023;27;20019;-86
2022/02/19 06:09:36;;;;;;;48.10;25.55;;;77.10;2227.20;;;;;;5119774;27;20016;-82
2022/02/19 06:12:02;;;;;;;57.47;31.20;;;77.00;2227.20;;;;;;5119595;27;20019;-84
2022/02/19 06:14:28;;;;;;;60.97;32.78;;;77.20;2227.20;;;;;;5119351;27;20030;-84
2022/02/19 06:16:54;;;;;;;61.50;33.80;;;76.80;2227.20;;;;;;5119426;27;20023;-83
2022/02/19 06:19:19;;;;;;;65.32;34.35;;;76.80;2227.20;;;;;;5119327;27;20366;-85
2022/02/19 06:21:45;;;;;;;61.50;34.67;;;76.80;2227.20;;;;;;5119399;27;20400;-84
2022/02/19 06:24:11;;;;;;;68.53;37.92;;;77.00;2227.20;;;;;;5119102;27;20038;-83
2022/02/19 06:26:37;;;;;;;74.25;38.10;;;77.10;2227.20;;;;;;5119168;27;20072;-85
2022/02/19 06:29:03;;;;;;;71.18;37.20;;;77.20;2227.20;;;;;;5119205;27;20019;-84
2022/02/19 06:31:29;;;;;;;65.88;37.40;;;77.50;2227.20;;;;;;5118647;27;20023;-82
2022/02/19 06:33:54;;;;;;;66.25;35.40;;;77.40;2227.20;;;;;;5119114;27;20478;-86
2022/02/19 06:36:26;;;;;;;78.68;43.67;;;77.40;2227.20;;;;;;5137531;27;20015;-82
2022/02/19 06:38:52;;;;;;;62.97;40.22;;;77.30;2227.20;;;;;;5119379;27;20019;-83
2022/02/19 06:41:18;;;;;;;75.18;47.17;;;77.10;2227.20;;;;;;5118561;27;20355;-84
2022/02/19 06:43:44;;;;;;;64.07;39.92;;;77.30;2227.20;;;;;;5137295;27;20027;-83
2022/02/19 06:46:09;;;;;;;64.63;39.15;;;77.50;2227.20;;;;;;5136917;27;20476;-80
2022/02/19 06:48:35;;;;;;;75.20;42.17;;;77.70;2227.20;;;;;;5127719;27;20086;-81
2022/02/19 06:51:01;;;;;;;74.75;42.63;;;77.60;2227.20;;;;;;5140858;27;20471;-78
2022/02/19 06:53:27;;;;;;;74.47;43.70;;;77.70;2227.20;;;;;;5118667;27;20122;-82
2022/02/19 06:55:53;;;;;;;72.50;44.17;;;77.70;2227.20;;;;;;5118795;27;20015;-80
2022/02/19 06:58:19;;;;;;;78.63;43.58;;;77.70;2227.20;;;;;;5118596;27;20020;-83
2022/02/19 07:00:46;;;;;;;81.28;42.97;;;77.70;2227.20;;;;;;5118482;27;20025;-83
2022/02/19 07:03:12;;;;;;;82.78;45.20;;;102.50;2227.20;;;;;;5118003;27;20046;-78
2022/02/19 07:05:38;;;;;;;76.72;41.92;;;102.50;2227.20;;;;;;5118474;27;20023;-79
2022/02/19 07:08:04;;;;;;;82.97;47.58;;;77.70;2227.20;;;;;;5118073;27;20027;-81
2022/02/19 07:10:30;;;;;;;74.93;44.85;;;102.70;2227.20;;;;;;5117927;27;20411;-81
2022/02/19 07:12:56;;;;;;;85.47;48.00;;;102.70;2227.20;;;;;;5117861;27;20053;-78
2022/02/19 07:15:22;;;;;;;82.13;50.22;;;102.80;2227.20;;;;;;5117490;27;20023;-80
2022/02/19 07:17:49;;;;;;;87.20;52.05;;;103.00;2227.20;;;;;;5136055;27;20018;-78
2022/02/19 07:20:15;;;;;;;87.80;50.88;;;103.20;2227.20;;;;;;5118019;27;20229;-77
2022/02/19 07:22:41;;;;;;;118.05;64.10;;;128.10;2252.80;;;;;;5117443;27;20118;-76
2022/02/19 07:25:07;;;;;;;100.20;57.75;;;128.20;2252.80;;;;;;5117806;27;20073;-80
2022/02/19 07:27:41;;;;;;;87.85;52.60;;;128.40;2252.80;;;;;;5117730;27;20026;-78
2022/02/19 07:30:09;;;;;;;92.10;56.40;;;128.40;2252.80;;;;;;5136053;27;20481;-80
2022/02/19 07:32:36;;;;;;;107.45;65.28;;;128.60;2252.80;;;;;;5118028;27;20031;-77
2022/02/19 07:35:02;;;;;;;123.32;74.05;;;128.60;2252.80;;;;;;5117606;27;20026;-76
2022/02/19 07:37:28;;;;;;;97.47;61.80;;;128.70;2252.80;;;;;;5117257;27;20046;-78
2022/02/19 07:39:54;;;;;;;111.00;69.00;;;128.80;2252.80;;;;;;5117112;27;20019;-78
2022/02/19 07:42:20;;;;;;;114.60;68.85;;;128.90;2252.80;;;;;;5116974;27;20047;-75
2022/02/19 07:44:46;;;;;;;111.78;59.58;;;153.60;2252.80;;;;;;5134934;27;20031;-78
2022/02/19 07:47:11;;;;;;;99.85;62.80;;;153.70;2252.80;;;;;;5117378;27;20064;-81
2022/02/19 08:00:34;;;;;;;112.75;69.63;;;154.30;2252.80;;;;;;5135276;27;20068;-76
2022/02/19 08:03:05;;;;;;;104.00;64.85;;;154.50;2252.80;;;;;;5135375;27;20054;-78
2022/02/19 08:05:34;;;;;;;97.20;60.40;;;179.20;2252.80;;;;;;5116903;27;20117;-78
2022/02/19 08:08:41;;;;;;;96.03;59.33;;;179.20;2252.80;;;;;;5116003;27;20110;-79
2022/02/19 08:19:09;;;;;;;62.33;40.20;;;179.50;2252.80;;;;;;4948252;28;20031;-82
2022/02/19 08:25:46;;;;;;;60.97;36.65;;;179.80;2252.80;;;;;;5051038;28;20488;-80
2022/02/19 09:27:04;;;;;;;42.22;25.20;;;281.60;2124.80;;;;;;5107970;28;20054;-79
2022/02/19 09:29:56;;;;;;;38.63;25.13;;;282.10;2048.00;;;;;;5079960;28;20383;-79
2022/02/19 09:32:31;;;;;;;42.93;28.97;;;282.20;2022.40;;;;;;5086857;28;20516;-79
2022/02/19 09:35:07;;;;;;;37.28;22.60;;;282.30;2048.00;;;;;;5096688;28;20459;-78
2022/02/19 09:37:39;;;;;;;33.10;22.33;;;282.30;2022.40;;;;;;5119005;28;20038;-81
2022/02/19 09:40:07;;;;;;;37.85;28.10;;;307.30;1996.80;;;;;;5079668;28;20027;-79
2022/02/19 09:42:35;;;;;;;50.90;35.33;;;307.20;1971.20;;;;;;5095352;28;20732;-79
2022/02/19 09:45:02;;;;;;;40.38;29.67;;;307.80;1971.20;;;;;;5110529;28;20028;-79
2022/02/19 09:47:32;;;;;;;44.08;30.80;;;307.90;1945.60;;;;;;5098737;28;20024;-78
2022/02/19 09:51:12;;;;;;;;;;;;;;;;;;;;;
2022/02/19 10:11:06;;;;;;;21.02;12.48;;;358.50;1792.00;;;;;;5054244;28;20472;-78
2022/02/19 10:13:33;;;;;;;28.92;16.40;;;358.70;1766.40;;;;;;5031035;28;20127;-78
2022/02/19 10:16:01;;;;;;;16.73;9.88;;;358.80;1740.80;;;;;;5037486;28;20029;-77
2022/02/19 10:18:43;;;;;;;23.52;12.75;;;358.80;1740.80;;;;;;5116786;28;20015;-78
2022/02/19 10:21:22;;;;;;;21.85;14.13;;;358.80;1740.80;;;;;;5093585;28;20044;-78
2022/02/19 10:23:56;;;;;;;21.90;14.10;;;359.00;1740.80;;;;;;5096557;28;20042;-76
2022/02/19 10:26:27;;;;;;;41.75;34.15;;;359.20;1740.80;;;;;;5103407;28;20051;-77
2022/02/19 10:29:00;;;;;;;21.17;9.60;;;384.00;1715.20;;;;;;5098441;28;20074;-78
2022/02/19 10:31:26;;;;;;;41.80;32.22;;;384.00;1689.60;;;;;;5097407;28;20032;-78
2022/02/19 10:34:16;;;;;;;19.05;12.25;;;384.10;1638.40;;;;;;5098092;28;20026;-78
2022/02/19 10:36:45;;;;;;;17.00;11.35;;;384.40;1638.40;;;;;;5114669;28;20020;-79
2022/02/19 10:39:11;;;;;;;21.77;14.02;;;384.60;1587.20;;;;;;5116152;28;20016;-78
2022/02/19 10:41:41;;;;;;;13.93;9.95;;;384.70;1587.20;;;;;;5093705;28;20023;-78
2022/02/19 10:44:23;;;;;;;35.85;17.58;;;384.70;1612.80;;;;;;5098168;28;20015;-78
2022/02/19 10:46:50;;;;;;;22.00;12.05;;;384.70;1587.20;;;;;;5087461;28;20062;-78
2022/02/19 10:49:16;;;;;;;18.17;11.05;;;409.60;1612.80;;;;;;5077832;28;20031;-77
2022/02/19 10:51:45;;;;;;;21.52;11.20;;;409.70;1587.20;;;;;;5102210;28;20024;-78
2022/02/19 10:54:24;;;;;;;25.52;14.68;;;409.60;1612.80;;;;;;5091793;28;20080;-78
2022/02/19 10:57:34;;;;;;;13.77;9.13;;;409.70;1612.80;;;;;;5094441;28;20016;-79
2022/02/19 11:00:32;;;;;;;13.43;8.30;;;409.90;1536.00;;;;;;5094071;28;20028;-79
2022/02/19 11:02:59;;;;;;;9.93;5.93;;;410.50;1510.40;;;;;;5083524;28;20027;-79
2022/02/19 11:05:25;;;;;;;22.10;10.02;;;435.50;1484.80;;;;;;5096846;28;20592;-78
2022/02/19 11:07:51;;;;;;;32.72;12.23;;;435.50;1484.80;;;;;;5109183;28;20333;-78
2022/02/19 11:10:22;;;;;;;9.43;6.18;;;435.60;1484.80;;;;;;5076488;28;20024;-78
2022/02/19 11:12:49;;;;;;;10.75;6.35;;;435.40;1433.60;;;;;;5102428;28;20027;-79
2022/02/19 11:15:20;;;;;;;11.02;6.40;;;460.90;1459.20;;;;;;5100568;28;20101;-79
2022/02/19 11:17:48;;;;;;;9.90;5.93;;;435.80;1433.60;;;;;;5095322;28;20016;-80
2022/02/19 11:20:15;;;;;;;14.65;9.23;;;435.80;1459.20;;;;;;5076814;28;20054;-79
2022/02/19 11:22:43;;;;;;;17.55;10.88;;;435.80;1459.20;;;;;;5095055;28;20112;-76
2022/02/19 11:25:16;;;;;;;15.90;9.05;;;436.00;1459.20;;;;;;5090427;28;20344;-77
2022/02/19 11:28:12;;;;;;;17.42;11.10;;;460.80;1459.20;;;;;;5096681;28;20047;-77
2022/02/19 11:30:51;;;;;;;18.00;10.32;;;461.00;1459.20;;;;;;5101363;28;20778;-76
2022/02/19 11:33:18;;;;;;;16.17;10.88;;;461.10;1459.20;;;;;;5114065;28;20019;-78
2022/02/19 11:35:45;;;;;;;14.15;9.32;;;461.20;1459.20;;;;;;5095497;28;20093;-79
2022/02/19 11:38:32;;;;;;;14.82;8.48;;;461.40;1408.00;;;;;;5096639;28;20034;-78
2022/02/19 11:41:10;;;;;;;13.45;7.45;;;461.70;1382.40;;;;;;5088940;28;20024;-79
2022/02/19 11:43:53;;;;;;;13.25;7.47;;;486.40;1408.00;;;;;;5114630;28;20065;-79
2022/02/19 11:46:25;;;;;;;18.38;10.10;;;486.70;1382.40;;;;;;5084593;28;20032;-79
2022/02/19 11:48:51;;;;;;;13.55;8.23;;;487.10;1356.80;;;;;;5078390;28;20027;-78
2022/02/19 11:51:23;;;;;;;16.33;9.73;;;487.20;1356.80;;;;;;5096734;28;20451;-78
2022/02/19 11:54:13;;;;;;;14.20;10.25;;;512.10;1331.20;;;;;;5092520;28;20076;-80
2022/02/19 11:56:41;;;;;;;25.65;13.68;;;512.40;1305.60;;;;;;5095815;28;20073;-77
2022/02/19 11:59:10;;;;;;;15.98;8.60;;;512.70;1305.60;;;;;;5096601;28;20073;-78
2022/02/19 12:01:37;;;;;;;24.13;14.23;;;512.90;1280.00;;;;;;5096250;28;20031;-80
2022/02/19 12:04:09;;;;;;;21.73;14.20;;;537.70;1305.60;;;;;;5096053;28;20035;-79
2022/02/19 12:06:36;;;;;;;20.35;11.50;;;538.00;1280.00;;;;;;5096333;28;20026;-80
2022/02/19 12:09:10;;;;;;;26.05;15.75;;;538.10;1280.00;;;;;;5090345;28;20016;-78
2022/02/19 12:12:03;;;;;;;15.18;9.45;;;538.20;1305.60;;;;;;5090487;28;20354;-77
2022/02/19 12:14:57;;;;;;;15.82;8.77;;;538.50;1254.40;;;;;;5092277;28;20074;-78
2022/02/19 12:17:44;;;;;;;14.35;8.65;;;563.30;1280.00;;;;;;5093912;28;20031;-76
2022/02/19 12:20:32;;;;;;;17.77;10.82;;;563.50;1280.00;;;;;;5094097;28;20452;-76
2022/02/19 12:23:02;;;;;;;22.38;9.32;;;563.60;1254.40;;;;;;5074727;28;20031;-76
2022/02/19 12:25:56;;;;;;;13.23;7.25;;;563.80;1254.40;;;;;;5078288;28;20032;-75
2022/02/19 12:28:23;;;;;;;17.35;12.50;;;563.80;1203.20;;;;;;5094013;28;20051;-77
2022/02/19 12:31:20;;;;;;;20.10;11.15;;;564.00;1254.40;;;;;;5076105;28;20023;-77
2022/02/19 12:33:48;;;;;;;31.25;22.15;;;564.10;1228.80;;;;;;5072637;28;20036;-77
2022/02/19 12:36:14;;;;;;;28.67;19.20;;;564.10;1228.80;;;;;;5085896;28;20093;-79
2022/02/19 12:38:46;;;;;;;30.27;20.20;;;563.90;1228.80;;;;;;5091657;28;20023;-77
2022/02/19 12:41:12;;;;;;;25.52;16.73;;;564.00;1254.40;;;;;;5114034;28;20039;-75
2022/02/19 12:43:37;;;;;;;26.73;17.25;;;563.90;1228.80;;;;;;5085050;28;20024;-77
2022/02/19 12:46:03;;;;;;;19.95;11.93;;;563.70;1228.80;;;;;;5095516;28;20023;-77
2022/02/19 12:48:29;;;;;;;22.85;14.50;;;563.40;1254.40;;;;;;5129972;28;20032;-76
2022/02/19 12:51:00;;;;;;;32.13;20.00;;;563.30;1280.00;;;;;;5109563;28;20079;-76
2022/02/19 12:53:26;;;;;;;43.25;24.65;;;563.60;1254.40;;;;;;5096098;28;20416;-77
2022/02/19 12:55:59;;;;;;;14.68;9.82;;;563.70;1280.00;;;;;;5096013;28;20456;-77
2022/02/19 12:58:25;;;;;;;32.67;20.98;;;563.70;1254.40;;;;;;5095558;28;20019;-79
2022/02/19 13:00:55;;;;;;;46.63;29.55;;;564.10;1254.40;;;;;;5095823;28;20026;-80
2022/02/19 13:03:21;;;;;;;64.22;35.45;;;588.80;1254.40;;;;;;5095640;28;20020;-79
2022/02/19 13:06:00;;;;;;;48.30;28.58;;;564.10;1228.80;;;;;;5113731;28;20431;-80
2022/02/19 13:08:38;;;;;;;26.45;15.27;;;588.90;1228.80;;;;;;5095725;28;20486;-81
2022/02/19 13:11:07;;;;;;;50.83;33.97;;;588.90;1228.80;;;;;;5095523;28;20024;-80
2022/02/19 13:13:40;;;;;;;28.05;15.57;;;564.10;1254.40;;;;;;5095004;28;20034;-81
2022/02/19 13:16:08;;;;;;;24.92;14.57;;;588.80;1254.40;;;;;;5095561;28;20489;-81
2022/02/19 13:18:39;;;;;;;23.13;15.05;;;589.00;1254.40;;;;;;5095545;28;20073;-79
2022/02/19 13:21:07;;;;;;;45.83;29.02;;;564.10;1254.40;;;;;;5095206;28;20467;-80
2022/02/19 13:23:33;;;;;;;34.90;26.42;;;564.10;1254.40;;;;;;5095544;28;20375;-81
2022/02/19 13:26:00;;;;;;;47.63;31.42;;;564.10;1254.40;;;;;;5095455;28;20110;-81
2022/02/19 13:28:26;;;;;;;18.90;13.23;;;564.00;1254.40;;;;;;5095048;28;20278;-80
2022/02/19 13:30:52;;;;;;;22.70;16.08;;;563.90;1228.80;;;;;;5113697;28;20099;-79
2022/02/19 13:33:18;;;;;;;24.42;14.25;;;563.90;1254.40;;;;;;5094872;28;20118;-79
2022/02/19 13:35:45;;;;;;;25.05;18.30;;;564.10;1254.40;;;;;;5092491;28;20370;-79
2022/02/19 13:38:11;;;;;;;33.95;23.65;;;588.80;1228.80;;;;;;5095568;28;20054;-81
2022/02/19 13:40:37;;;;;;;36.58;24.23;;;589.00;1228.80;;;;;;5094988;28;20036;-80
2022/02/19 13:43:19;;;;;;;26.08;18.23;;;589.10;1254.40;;;;;;5098525;28;20064;-81
2022/02/19 13:45:46;;;;;;;28.52;22.45;;;589.10;1228.80;;;;;;5099406;28;20023;-80
2022/02/19 13:48:16;;;;;;;37.55;27.08;;;589.00;1228.80;;;;;;5096535;28;20046;-79
2022/02/19 13:50:56;;;;;;;27.23;19.88;;;589.00;1228.80;;;;;;5099404;28;20336;-80